Time;durP1;ratioP1;P1;durP2;ratioP2;P2;SDS_P1;SDS_P2;PMS_P1;PMS_P2;Temp;Humidity;BMP_temperature;BMP_pressure;BME280_temperature;BME280_humidity;BME280_pressure;Samples;Min_cycle;Max_cycle;Signal;HPM_P1;HPM_P2
2023/07/14 00:01:34;;;;;;;1.70;1.50;;;24.70;46.20;;;;;;5011036;28;20225;-83
2023/07/14 00:04:01;;;;;;;1.67;1.58;;;24.60;46.10;;;;;;4999378;28;20197;-83
2023/07/14 00:06:28;;;;;;;2.13;1.70;;;24.70;46.90;;;;;;4999350;28;20212;-83
2023/07/14 00:08:55;;;;;;;2.00;1.60;;;24.60;46.20;;;;;;4999415;28;20248;-83
2023/07/14 00:11:24;;;;;;;2.60;1.60;;;24.60;46.10;;;;;;4999206;28;20634;-83
2023/07/14 00:13:52;;;;;;;2.00;1.73;;;24.60;46.40;;;;;;4999574;28;20198;-83
2023/07/14 00:16:20;;;;;;;1.73;1.60;;;24.60;46.40;;;;;;4998966;28;20194;-83
2023/07/14 00:18:49;;;;;;;2.05;1.60;;;24.60;46.40;;;;;;5015099;28;20208;-83
2023/07/14 00:21:16;;;;;;;2.05;1.70;;;24.50;46.40;;;;;;5015480;28;20597;-82
2023/07/14 00:23:44;;;;;;;1.60;1.50;;;24.50;46.40;;;;;;5015506;28;20260;-82
2023/07/14 00:26:14;;;;;;;3.90;1.70;;;24.50;46.60;;;;;;4998830;28;20296;-82
2023/07/14 00:28:42;;;;;;;2.40;1.63;;;24.50;46.70;;;;;;4998937;28;20697;-82
2023/07/14 00:31:12;;;;;;;3.25;1.90;;;24.50;46.60;;;;;;4983050;28;20221;-82
2023/07/14 00:33:41;;;;;;;2.17;1.90;;;24.50;46.70;;;;;;4999251;28;20194;-82
2023/07/14 00:36:09;;;;;;;2.40;1.80;;;24.50;46.70;;;;;;5015406;28;20206;-82
2023/07/14 00:38:37;;;;;;;1.92;1.73;;;24.40;46.60;;;;;;5002031;28;20200;-82
2023/07/14 00:41:07;;;;;;;2.92;1.98;;;24.50;46.80;;;;;;4996274;28;20300;-82
2023/07/14 00:43:35;;;;;;;2.30;1.65;;;24.40;46.80;;;;;;5012383;28;20205;-82
2023/07/14 00:46:03;;;;;;;1.80;1.70;;;24.40;46.80;;;;;;4980221;28;20204;-82
2023/07/14 00:48:31;;;;;;;1.88;1.70;;;24.40;46.80;;;;;;4996620;28;20217;-82
2023/07/14 00:51:01;;;;;;;2.58;1.85;;;24.40;46.80;;;;;;4996948;28;20312;-82
2023/07/14 00:53:32;;;;;;;2.47;1.70;;;24.40;47.00;;;;;;5013359;28;20660;-82
2023/07/14 00:56:01;;;;;;;2.70;2.00;;;24.30;46.80;;;;;;4996954;28;20188;-82
2023/07/14 00:58:28;;;;;;;2.92;1.90;;;24.40;46.90;;;;;;4996334;28;20196;-82
2023/07/14 01:01:21;;;;;;;2.10;1.90;;;24.30;46.90;;;;;;4979942;28;20312;-82
2023/07/14 01:03:49;;;;;;;3.10;2.08;;;24.30;46.80;;;;;;5008159;28;20537;-82
2023/07/14 01:06:17;;;;;;;3.08;1.80;;;24.30;47.00;;;;;;4995334;28;20201;-82
2023/07/14 01:08:51;;;;;;;2.42;2.05;;;24.30;47.00;;;;;;4995417;28;20217;-82
2023/07/14 01:11:19;;;;;;;3.45;1.85;;;24.30;47.00;;;;;;5012118;28;20586;-82
2023/07/14 01:13:47;;;;;;;2.70;1.92;;;24.30;47.00;;;;;;5013418;28;20228;-82
2023/07/14 01:16:15;;;;;;;2.28;1.65;;;24.30;47.00;;;;;;4997651;28;20205;-82
2023/07/14 01:18:43;;;;;;;2.05;1.80;;;24.30;47.00;;;;;;5013515;28;20189;-82
2023/07/14 01:21:10;;;;;;;1.98;1.70;;;24.20;47.00;;;;;;5013125;28;20312;-82
2023/07/14 01:23:44;;;;;;;2.55;1.70;;;24.20;46.80;;;;;;4996813;28;20288;-82
2023/07/14 01:26:25;;;;;;;1.92;1.63;;;24.20;47.00;;;;;;5013710;28;20221;-82
2023/07/14 01:28:55;;;;;;;2.30;2.00;;;24.20;47.20;;;;;;4996935;28;20308;-82
2023/07/14 01:31:24;;;;;;;1.88;1.70;;;24.10;47.20;;;;;;5012044;28;20232;-82
2023/07/14 01:33:53;;;;;;;3.83;2.00;;;24.10;47.20;;;;;;4995734;28;20288;-82
2023/07/14 01:36:21;;;;;;;3.20;1.77;;;24.10;47.20;;;;;;5012232;28;20216;-82
2023/07/14 01:38:48;;;;;;;3.30;2.10;;;24.10;47.10;;;;;;4980370;28;20225;-82
2023/07/14 01:41:15;;;;;;;2.72;1.88;;;24.10;47.20;;;;;;4995995;28;20225;-82
2023/07/14 01:43:43;;;;;;;2.78;1.88;;;24.10;47.20;;;;;;5012340;28;20209;-82
2023/07/14 01:46:14;;;;;;;2.20;1.90;;;24.10;47.20;;;;;;5011823;28;20256;-82
2023/07/14 01:48:46;;;;;;;3.05;2.00;;;24.10;47.40;;;;;;5012378;28;20221;-82
2023/07/14 01:51:13;;;;;;;2.95;1.88;;;24.10;47.30;;;;;;5011919;28;20213;-82
2023/07/14 01:53:43;;;;;;;2.75;1.92;;;24.00;47.30;;;;;;5011514;28;20224;-83
2023/07/14 01:56:15;;;;;;;2.17;1.92;;;24.00;47.40;;;;;;5011804;28;20569;-82
2023/07/14 01:58:49;;;;;;;1.98;1.70;;;24.00;47.40;;;;;;4995075;28;20201;-82
2023/07/14 02:01:18;;;;;;;2.47;1.90;;;24.00;47.40;;;;;;4979755;28;20228;-82
2023/07/14 02:03:47;;;;;;;3.03;1.80;;;24.00;47.50;;;;;;5011470;28;20198;-82
2023/07/14 02:06:15;;;;;;;2.45;2.13;;;24.00;47.50;;;;;;5012607;28;20618;-82
2023/07/14 02:08:44;;;;;;;4.00;1.98;;;24.00;47.50;;;;;;5012699;28;20559;-81
2023/07/14 02:11:14;;;;;;;2.42;2.15;;;24.00;47.40;;;;;;5011726;28;20217;-82
2023/07/14 02:13:41;;;;;;;2.15;1.70;;;24.00;47.50;;;;;;5011591;28;20208;-82
2023/07/14 02:16:09;;;;;;;2.10;1.90;;;23.90;47.50;;;;;;5011170;28;20210;-82
2023/07/14 02:18:37;;;;;;;3.17;2.00;;;23.90;47.40;;;;;;4994334;28;20652;-82
2023/07/14 02:21:05;;;;;;;1.65;1.55;;;23.90;47.50;;;;;;4995760;28;20213;-82
2023/07/14 02:23:32;;;;;;;3.05;2.20;;;23.90;47.60;;;;;;4994487;28;20201;-82
2023/07/14 02:26:05;;;;;;;2.38;1.85;;;23.90;47.60;;;;;;4978423;28;20248;-82
2023/07/14 02:28:32;;;;;;;3.33;1.98;;;23.90;47.70;;;;;;5010597;28;20275;-82
2023/07/14 02:31:01;;;;;;;2.03;1.83;;;23.80;47.60;;;;;;5011274;28;20240;-82
2023/07/14 02:33:31;;;;;;;2.45;1.67;;;23.80;47.60;;;;;;5010889;28;20194;-82
2023/07/14 02:36:02;;;;;;;3.67;2.10;;;23.80;47.70;;;;;;5011038;28;20201;-82
2023/07/14 02:38:29;;;;;;;2.25;2.05;;;23.80;47.70;;;;;;5010341;28;20664;-82
2023/07/14 02:41:02;;;;;;;2.08;1.70;;;23.80;47.60;;;;;;4994707;28;20585;-82
2023/07/14 02:43:29;;;;;;;2.30;2.08;;;23.80;47.70;;;;;;4995304;28;20627;-82
2023/07/14 02:45:57;;;;;;;4.43;1.90;;;23.80;47.70;;;;;;5011971;28;20201;-82
2023/07/14 02:48:27;;;;;;;2.35;2.00;;;23.80;47.70;;;;;;4995370;28;20202;-82
2023/07/14 02:50:56;;;;;;;2.33;1.90;;;23.70;47.70;;;;;;4995656;28;20209;-82
2023/07/14 02:53:24;;;;;;;2.72;1.80;;;23.70;47.80;;;;;;5011046;28;20300;-82
2023/07/14 02:55:51;;;;;;;2.35;1.80;;;23.70;47.80;;;;;;5011287;28;20280;-82
2023/07/14 02:58:18;;;;;;;2.40;1.92;;;23.70;47.80;;;;;;5011046;28;20228;-82
2023/07/14 03:00:46;;;;;;;2.42;1.98;;;23.70;47.70;;;;;;5010896;28;20209;-82
2023/07/14 03:03:13;;;;;;;3.50;2.10;;;23.70;47.80;;;;;;4995118;28;20201;-82
2023/07/14 03:05:40;;;;;;;2.67;1.90;;;23.70;47.70;;;;;;5011516;28;20201;-82
2023/07/14 03:08:14;;;;;;;1.98;1.67;;;23.70;47.70;;;;;;4994667;28;20200;-82
2023/07/14 03:10:43;;;;;;;2.00;1.63;;;23.60;47.60;;;;;;5010570;28;20225;-82
2023/07/14 03:13:10;;;;;;;2.17;1.73;;;23.70;47.70;;;;;;5011070;28;20640;-82
2023/07/14 03:15:38;;;;;;;2.65;1.80;;;23.60;47.70;;;;;;5010834;28;20256;-82
2023/07/14 03:18:05;;;;;;;2.35;1.70;;;23.60;47.70;;;;;;4993867;28;20633;-82
2023/07/14 03:20:32;;;;;;;2.35;1.80;;;23.70;47.70;;;;;;5010226;28;20217;-82
2023/07/14 03:23:00;;;;;;;2.10;1.90;;;23.60;47.60;;;;;;4993256;28;20201;-82
2023/07/14 03:25:27;;;;;;;4.22;2.20;;;23.70;47.70;;;;;;4994769;28;20197;-82
2023/07/14 03:27:55;;;;;;;3.05;1.92;;;23.70;47.70;;;;;;5013823;28;20204;-82
2023/07/14 03:30:22;;;;;;;2.63;1.98;;;23.70;47.60;;;;;;5013436;28;20229;-82
2023/07/14 03:32:50;;;;;;;2.67;1.85;;;23.70;47.40;;;;;;5013773;28;20624;-81
2023/07/14 03:35:18;;;;;;;2.38;1.90;;;23.70;47.40;;;;;;5013680;28;20205;-82
2023/07/14 03:37:46;;;;;;;2.20;1.90;;;23.80;47.40;;;;;;4997435;28;20197;-82
2023/07/14 03:40:14;;;;;;;2.10;1.88;;;23.80;47.90;;;;;;5013402;28;20221;-82
2023/07/14 03:42:43;;;;;;;3.63;1.70;;;23.80;47.40;;;;;;5012963;28;20743;-82
2023/07/14 03:45:12;;;;;;;2.10;1.90;;;23.80;47.30;;;;;;4996747;28;20570;-82
2023/07/14 03:47:39;;;;;;;2.90;2.15;;;23.80;47.20;;;;;;5014076;28;20198;-82
2023/07/14 03:50:08;;;;;;;4.13;2.05;;;23.80;47.20;;;;;;5012968;28;20280;-82
2023/07/14 03:52:35;;;;;;;2.97;1.92;;;23.80;47.00;;;;;;5016404;28;20197;-82
2023/07/14 03:55:02;;;;;;;2.05;1.85;;;23.80;47.00;;;;;;5016897;28;20203;-82
2023/07/14 03:57:30;;;;;;;2.65;2.05;;;23.90;47.10;;;;;;5024606;28;20212;-82
2023/07/14 03:59:57;;;;;;;3.20;2.17;;;23.90;47.10;;;;;;5036881;28;20185;-82
2023/07/14 04:02:26;;;;;;;2.05;1.88;;;23.90;47.10;;;;;;5021154;28;20170;-82
2023/07/14 04:04:53;;;;;;;2.72;2.13;;;23.90;47.10;;;;;;5013493;28;20575;-82
2023/07/14 04:07:21;;;;;;;3.22;2.38;;;23.80;47.00;;;;;;5017612;28;20201;-82
2023/07/14 04:09:50;;;;;;;3.17;2.28;;;23.90;47.00;;;;;;5003678;28;20213;-82
2023/07/14 04:12:17;;;;;;;2.17;1.98;;;23.90;47.00;;;;;;4998810;28;20292;-82
2023/07/14 04:14:44;;;;;;;2.10;1.90;;;23.90;47.20;;;;;;5014498;28;20197;-82
2023/07/14 04:17:11;;;;;;;2.30;2.10;;;23.90;47.20;;;;;;5017151;28;20205;-82
2023/07/14 04:19:39;;;;;;;2.33;1.80;;;23.90;47.30;;;;;;4983971;28;20198;-82
2023/07/14 04:22:07;;;;;;;1.98;1.75;;;23.80;47.10;;;;;;4998243;28;20244;-82
2023/07/14 04:24:35;;;;;;;2.30;2.10;;;23.90;47.30;;;;;;4998059;28;20197;-82
2023/07/14 04:27:03;;;;;;;3.25;1.95;;;24.00;47.40;;;;;;5013587;28;20201;-82
2023/07/14 04:29:31;;;;;;;2.22;1.85;;;24.00;47.40;;;;;;5013062;28;20646;-82
2023/07/14 04:31:58;;;;;;;2.90;1.90;;;24.00;47.40;;;;;;5013426;28;20687;-82
2023/07/14 04:34:27;;;;;;;2.47;2.00;;;24.00;47.30;;;;;;5013259;28;20207;-82
2023/07/14 04:36:55;;;;;;;2.47;1.90;;;24.00;47.30;;;;;;5012902;28;20213;-81
2023/07/14 04:39:24;;;;;;;1.90;1.80;;;24.00;47.40;;;;;;4997729;28;20655;-81
2023/07/14 04:41:52;;;;;;;3.03;2.30;;;24.00;47.40;;;;;;5013158;28;20316;-82
2023/07/14 04:44:19;;;;;;;2.65;1.90;;;24.00;47.50;;;;;;4996523;28;20204;-82
2023/07/14 04:46:46;;;;;;;2.35;1.85;;;24.00;47.40;;;;;;5012759;28;20197;-82
2023/07/14 04:49:14;;;;;;;2.42;2.00;;;24.10;47.50;;;;;;4995955;28;20202;-82
2023/07/14 04:51:42;;;;;;;2.33;2.13;;;24.10;47.50;;;;;;4996181;28;20222;-82
2023/07/14 04:54:10;;;;;;;3.60;2.20;;;24.10;47.50;;;;;;5012235;28;20214;-82
2023/07/14 04:56:38;;;;;;;2.53;1.80;;;24.20;47.60;;;;;;5012198;28;20197;-82
2023/07/14 04:59:05;;;;;;;3.20;1.85;;;24.10;47.50;;;;;;5012405;28;20292;-82
2023/07/14 05:01:33;;;;;;;2.88;1.98;;;24.20;47.50;;;;;;4996888;28;20213;-82
2023/07/14 05:04:00;;;;;;;3.03;2.10;;;24.20;47.50;;;;;;4996346;28;20606;-82
2023/07/14 05:06:27;;;;;;;4.05;2.17;;;24.20;47.40;;;;;;4981275;28;20656;-82
2023/07/14 05:08:54;;;;;;;2.25;1.85;;;24.30;47.40;;;;;;5012245;28;20648;-82
2023/07/14 05:11:23;;;;;;;2.53;1.90;;;24.30;47.30;;;;;;5011626;28;20229;-82
2023/07/14 05:13:52;;;;;;;3.00;1.90;;;24.30;47.20;;;;;;5011696;28;20205;-82
2023/07/14 05:16:18;;;;;;;2.97;2.05;;;24.40;47.30;;;;;;5011145;28;20201;-81
2023/07/14 05:18:46;;;;;;;2.00;1.80;;;24.40;47.30;;;;;;5013267;28;20652;-81
2023/07/14 05:21:13;;;;;;;2.85;2.00;;;24.40;47.30;;;;;;5013597;28;20264;-82
2023/07/14 05:23:40;;;;;;;2.22;2.00;;;24.40;47.30;;;;;;5013646;28;20204;-82
2023/07/14 05:26:08;;;;;;;3.08;1.85;;;24.40;47.30;;;;;;4996588;28;20353;-81
2023/07/14 05:28:37;;;;;;;3.35;1.95;;;24.50;47.40;;;;;;5013128;28;20205;-82
2023/07/14 05:31:06;;;;;;;2.50;2.00;;;24.50;47.30;;;;;;4995408;28;20237;-82
2023/07/14 05:33:32;;;;;;;3.42;1.92;;;24.50;47.20;;;;;;4995044;28;20233;-82
2023/07/14 05:36:00;;;;;;;2.53;1.98;;;24.50;47.00;;;;;;5012457;28;20197;-81
2023/07/14 05:38:29;;;;;;;2.55;2.13;;;24.60;47.10;;;;;;5015063;28;20288;-82
2023/07/14 05:40:56;;;;;;;2.55;2.17;;;24.70;47.50;;;;;;4998817;28;20219;-82
2023/07/14 05:43:24;;;;;;;3.00;2.05;;;24.70;46.80;;;;;;4998997;28;20651;-82
2023/07/14 05:45:52;;;;;;;4.72;2.00;;;24.80;46.60;;;;;;5016958;28;20208;-81
2023/07/14 05:48:20;;;;;;;2.10;1.90;;;24.90;46.50;;;;;;5015287;28;20201;-81
2023/07/14 05:50:47;;;;;;;2.58;2.03;;;25.00;46.20;;;;;;5016420;28;20232;-81
2023/07/14 05:53:15;;;;;;;2.40;2.05;;;25.10;46.10;;;;;;5035229;22;20191;-81
2023/07/14 05:55:42;;;;;;;2.47;1.77;;;25.30;45.90;;;;;;5000135;28;20217;-83
2023/07/14 05:58:09;;;;;;;2.72;1.95;;;25.40;45.60;;;;;;4984362;28;20197;-83
2023/07/14 06:00:38;;;;;;;2.33;1.85;;;25.50;45.50;;;;;;4999842;28;20738;-83
2023/07/14 06:03:07;;;;;;;3.63;2.42;;;25.60;45.20;;;;;;4999552;28;20211;-83
2023/07/14 06:05:34;;;;;;;3.70;2.05;;;25.70;45.00;;;;;;4999381;28;20283;-83
2023/07/14 06:08:01;;;;;;;3.00;2.30;;;25.70;45.00;;;;;;4999177;28;20205;-83
2023/07/14 06:10:28;;;;;;;3.17;1.98;;;25.70;45.00;;;;;;4998956;28;20229;-83
2023/07/14 06:12:55;;;;;;;3.03;2.10;;;25.80;45.00;;;;;;4998884;28;20618;-83
2023/07/14 06:15:23;;;;;;;2.35;2.13;;;25.80;44.90;;;;;;4998935;28;20208;-83
2023/07/14 06:17:50;;;;;;;4.15;1.92;;;25.80;44.90;;;;;;4998362;28;20211;-83
2023/07/14 06:20:19;;;;;;;3.05;2.10;;;25.70;44.80;;;;;;4997642;28;20216;-83
2023/07/14 06:22:48;;;;;;;2.80;2.13;;;25.70;44.90;;;;;;4981832;28;20300;-83
2023/07/14 06:25:15;;;;;;;2.20;2.00;;;25.70;45.00;;;;;;4997900;28;20205;-83
2023/07/14 06:27:42;;;;;;;2.95;1.90;;;25.70;45.00;;;;;;4981321;28;20201;-83
2023/07/14 06:30:10;;;;;;;2.83;2.20;;;25.70;45.10;;;;;;4980910;28;20632;-83
2023/07/14 06:32:38;;;;;;;3.10;2.20;;;25.80;45.10;;;;;;4997998;28;20204;-83
2023/07/14 06:35:06;;;;;;;2.47;2.05;;;25.90;44.80;;;;;;4997664;28;20204;-83
2023/07/14 06:37:34;;;;;;;2.13;1.90;;;26.10;44.50;;;;;;4998443;28;20299;-83
2023/07/14 06:40:03;;;;;;;2.80;2.00;;;26.30;44.20;;;;;;4998108;28;20221;-83
2023/07/14 06:42:30;;;;;;;1.98;1.80;;;26.40;43.90;;;;;;4998384;28;20205;-83
2023/07/14 06:44:57;;;;;;;2.53;1.88;;;26.60;43.70;;;;;;4998167;28;20211;-83
2023/07/14 06:47:25;;;;;;;2.58;1.98;;;26.70;43.30;;;;;;4998519;28;20200;-83
2023/07/14 06:49:52;;;;;;;2.75;2.05;;;26.90;43.10;;;;;;4998226;28;20204;-83
2023/07/14 06:52:19;;;;;;;2.75;2.10;;;27.00;42.60;;;;;;4997770;28;20262;-83
2023/07/14 06:54:47;;;;;;;2.92;1.98;;;27.20;42.40;;;;;;4997998;28;20298;-83
2023/07/14 06:57:14;;;;;;;3.47;2.10;;;27.30;42.10;;;;;;4998351;28;20247;-83
2023/07/14 06:59:41;;;;;;;2.53;2.08;;;27.40;42.00;;;;;;4998695;28;20200;-83
2023/07/14 07:02:11;;;;;;;3.97;1.90;;;27.50;41.90;;;;;;5001862;28;20246;-83
2023/07/14 07:04:38;;;;;;;3.65;2.17;;;27.50;41.70;;;;;;5001782;28;20192;-83
2023/07/14 07:07:05;;;;;;;2.28;2.08;;;27.60;41.60;;;;;;5002347;28;20290;-84
2023/07/14 07:09:32;;;;;;;2.10;1.85;;;27.70;41.30;;;;;;5001869;28;20196;-84
2023/07/14 07:12:00;;;;;;;2.13;1.90;;;27.80;41.10;;;;;;5002737;28;20220;-83
2023/07/14 07:14:28;;;;;;;2.80;2.15;;;27.90;40.80;;;;;;5001497;28;20262;-84
2023/07/14 07:16:55;;;;;;;3.15;2.17;;;28.00;40.60;;;;;;5000395;28;20200;-84
2023/07/14 07:19:22;;;;;;;2.30;2.10;;;28.00;41.00;;;;;;5002180;28;20207;-84
2023/07/14 07:21:49;;;;;;;6.50;2.20;;;28.20;40.20;;;;;;5001211;28;20224;-83
2023/07/14 07:24:17;;;;;;;5.43;2.90;;;28.20;40.00;;;;;;5010417;28;20215;-84
2023/07/14 07:26:44;;;;;;;3.95;2.58;;;28.00;40.10;;;;;;5001056;28;20200;-84
2023/07/14 07:29:13;;;;;;;5.60;2.25;;;27.80;40.50;;;;;;5000532;28;20209;-84
2023/07/14 07:31:40;;;;;;;3.10;2.35;;;27.70;40.60;;;;;;5000301;28;20224;-84
2023/07/14 07:34:08;;;;;;;5.55;2.40;;;27.50;41.40;;;;;;4984167;28;20211;-84
2023/07/14 07:36:35;;;;;;;5.30;2.63;;;27.50;41.40;;;;;;5000271;28;20196;-84
2023/07/14 07:39:03;;;;;;;4.75;2.20;;;27.60;41.30;;;;;;4983909;28;20571;-85
2023/07/14 07:41:30;;;;;;;2.97;2.28;;;27.70;41.00;;;;;;4999901;28;20234;-84
2023/07/14 07:43:58;;;;;;;4.65;2.15;;;27.90;41.00;;;;;;5000397;28;20250;-84
2023/07/14 07:46:27;;;;;;;4.22;2.35;;;28.00;40.60;;;;;;5002191;28;20211;-84
2023/07/14 07:48:55;;;;;;;4.28;2.15;;;28.00;40.20;;;;;;5000137;28;20192;-83
2023/07/14 07:51:21;;;;;;;3.10;2.40;;;28.10;39.90;;;;;;4999948;28;20220;-84
2023/07/14 07:53:49;;;;;;;4.57;2.10;;;28.10;39.10;;;;;;5000432;28;20658;-84
2023/07/14 07:56:17;;;;;;;3.38;1.92;;;28.10;38.30;;;;;;5000908;28;20212;-84
2023/07/14 07:58:44;;;;;;;3.20;2.00;;;28.10;38.00;;;;;;5000304;28;20212;-84
2023/07/14 08:01:17;;;;;;;5.35;2.20;;;28.10;38.40;;;;;;5000157;28;20270;-84
2023/07/14 08:03:45;;;;;;;2.50;1.98;;;28.30;38.30;;;;;;5000916;28;20192;-84
2023/07/14 08:06:14;;;;;;;3.95;1.95;;;28.30;37.80;;;;;;5000786;28;20227;-84
2023/07/14 08:08:42;;;;;;;4.75;2.22;;;28.40;37.40;;;;;;4999881;28;20215;-84
2023/07/14 08:11:10;;;;;;;3.25;1.88;;;28.50;37.50;;;;;;4998908;28;20224;-84
2023/07/14 08:13:36;;;;;;;3.92;2.05;;;28.40;36.70;;;;;;4999292;28;20228;-84
2023/07/14 08:16:04;;;;;;;4.90;2.00;;;28.50;36.90;;;;;;4999223;28;20250;-84
2023/07/14 08:18:31;;;;;;;4.15;1.98;;;28.40;37.40;;;;;;4999286;28;20207;-84
2023/07/14 08:21:01;;;;;;;3.60;2.10;;;28.60;37.50;;;;;;5000196;28;20262;-84
2023/07/14 08:23:28;;;;;;;2.42;1.90;;;28.70;37.30;;;;;;5001017;28;20210;-84
2023/07/14 08:25:56;;;;;;;2.35;1.90;;;28.80;37.10;;;;;;5000414;28;20197;-84
2023/07/14 08:28:23;;;;;;;4.20;2.33;;;28.80;37.30;;;;;;5000317;28;20254;-84
2023/07/14 08:30:51;;;;;;;3.90;2.10;;;28.90;37.30;;;;;;5000521;28;20568;-84
2023/07/14 08:33:18;;;;;;;3.13;2.20;;;28.90;37.40;;;;;;5000758;28;20600;-84
2023/07/14 08:35:45;;;;;;;3.50;1.73;;;28.90;37.00;;;;;;5000257;28;20231;-85
2023/07/14 08:38:14;;;;;;;2.85;1.95;;;28.90;36.80;;;;;;4968497;28;20572;-85
2023/07/14 08:40:45;;;;;;;2.92;2.00;;;28.90;37.00;;;;;;5000054;28;20251;-83
2023/07/14 08:43:20;;;;;;;2.55;1.90;;;28.80;37.10;;;;;;4999847;28;20188;-82
2023/07/14 08:45:53;;;;;;;3.40;2.03;;;28.80;37.40;;;;;;5000280;28;20258;-82
2023/07/14 08:48:28;;;;;;;3.78;1.77;;;28.70;37.30;;;;;;4999327;28;20213;-82
2023/07/14 08:50:56;;;;;;;2.47;1.90;;;28.70;37.50;;;;;;4999330;28;20223;-82
2023/07/14 08:53:27;;;;;;;2.88;1.83;;;28.70;37.40;;;;;;4999386;28;20640;-82
2023/07/14 08:55:55;;;;;;;3.40;1.90;;;28.70;37.60;;;;;;4999505;28;20231;-82
2023/07/14 08:58:24;;;;;;;3.10;1.92;;;28.70;37.60;;;;;;4999613;28;20192;-82
2023/07/14 09:01:02;;;;;;;2.40;1.80;;;28.70;37.60;;;;;;4999410;28;20710;-82
2023/07/14 09:03:36;;;;;;;2.83;1.90;;;28.70;37.70;;;;;;5000586;28;20200;-80
2023/07/14 09:06:06;;;;;;;1.95;1.67;;;28.70;37.70;;;;;;4999147;28;20264;-81
2023/07/14 09:08:34;;;;;;;2.60;2.00;;;28.80;37.60;;;;;;4998391;28;20197;-81
2023/07/14 09:11:02;;;;;;;3.13;1.88;;;28.80;37.60;;;;;;4981881;28;20247;-81
2023/07/14 09:13:43;;;;;;;2.83;2.10;;;28.80;37.70;;;;;;4998216;28;20200;-81
2023/07/14 09:16:12;;;;;;;2.00;1.80;;;28.80;37.90;;;;;;4998410;28;20218;-81
2023/07/14 09:18:44;;;;;;;3.63;1.83;;;28.70;37.90;;;;;;4998328;28;20200;-81
2023/07/14 09:21:15;;;;;;;2.92;1.83;;;28.60;38.00;;;;;;4998947;28;20215;-81
2023/07/14 09:24:00;;;;;;;1.85;1.52;;;28.50;38.10;;;;;;4998433;28;20205;-81
2023/07/14 09:26:31;;;;;;;2.00;1.80;;;28.40;38.40;;;;;;4999263;28;20195;-81
2023/07/14 09:28:58;;;;;;;2.50;1.80;;;28.40;38.60;;;;;;4999353;28;20219;-81
2023/07/14 09:31:37;;;;;;;2.38;1.70;;;28.30;38.60;;;;;;4999889;28;20587;-81
2023/07/14 09:34:09;;;;;;;2.35;1.77;;;28.30;38.80;;;;;;5019427;28;20189;-81
2023/07/14 09:36:38;;;;;;;4.00;2.10;;;28.20;38.80;;;;;;5000769;28;20656;-81
2023/07/14 09:39:09;;;;;;;2.22;2.03;;;28.20;38.90;;;;;;4999396;28;20603;-81
2023/07/14 09:41:37;;;;;;;2.15;1.70;;;28.20;39.00;;;;;;4998515;28;20216;-81
2023/07/14 09:44:04;;;;;;;2.60;1.85;;;28.20;39.00;;;;;;4997986;28;20609;-81
2023/07/14 09:46:37;;;;;;;2.38;1.60;;;28.20;39.00;;;;;;4998041;28;20200;-81
2023/07/14 09:49:06;;;;;;;2.25;1.70;;;28.20;39.00;;;;;;4998774;28;20192;-81
2023/07/14 09:51:32;;;;;;;2.33;1.75;;;28.20;39.00;;;;;;4998193;28;20220;-82
2023/07/14 09:54:01;;;;;;;2.08;1.52;;;28.20;39.10;;;;;;5000409;28;20295;-81
2023/07/14 09:56:31;;;;;;;3.33;1.98;;;28.20;39.10;;;;;;4998739;28;20283;-81
2023/07/14 09:59:01;;;;;;;2.40;1.80;;;28.20;39.80;;;;;;4999581;28;20230;-81
2023/07/14 10:01:30;;;;;;;2.08;1.65;;;28.10;39.30;;;;;;4999739;28;20211;-81
2023/07/14 10:03:58;;;;;;;2.05;1.80;;;28.10;39.40;;;;;;4999135;28;20587;-82
2023/07/14 10:06:26;;;;;;;1.90;1.65;;;28.00;39.50;;;;;;4998857;28;20658;-82
2023/07/14 10:08:55;;;;;;;2.17;1.58;;;28.00;40.20;;;;;;4998111;28;20204;-84
2023/07/14 10:11:24;;;;;;;3.17;1.80;;;27.90;40.10;;;;;;4999723;28;20267;-84
2023/07/14 10:13:57;;;;;;;1.75;1.60;;;27.90;40.20;;;;;;5001748;28;20208;-84
2023/07/14 10:16:25;;;;;;;3.03;2.00;;;27.90;40.10;;;;;;5000690;28;20211;-84
2023/07/14 10:18:54;;;;;;;2.35;1.60;;;27.90;40.10;;;;;;5000504;28;20228;-84
2023/07/14 10:21:27;;;;;;;2.30;1.80;;;27.90;40.00;;;;;;5002570;28;20247;-84
2023/07/14 10:23:59;;;;;;;2.28;1.75;;;27.90;40.10;;;;;;5003519;28;20199;-84
2023/07/14 10:26:29;;;;;;;2.83;1.48;;;27.90;40.00;;;;;;4999857;28;20669;-84
2023/07/14 10:28:57;;;;;;;3.40;1.73;;;27.90;40.00;;;;;;5001012;28;20737;-85
2023/07/14 10:31:28;;;;;;;2.10;1.63;;;27.90;40.00;;;;;;5000934;28;20220;-84
2023/07/14 10:34:08;;;;;;;2.35;1.67;;;27.90;40.00;;;;;;5001890;28;20196;-84
2023/07/14 10:36:37;;;;;;;2.13;1.75;;;27.90;40.00;;;;;;5000630;28;20195;-84
2023/07/14 10:39:06;;;;;;;2.80;1.60;;;27.90;40.10;;;;;;4999910;28;20651;-83
2023/07/14 10:41:34;;;;;;;2.28;1.63;;;27.90;40.10;;;;;;4999962;28;20678;-85
2023/07/14 10:44:03;;;;;;;1.80;1.50;;;27.80;40.10;;;;;;4984561;28;20196;-84
2023/07/14 10:46:33;;;;;;;1.77;1.52;;;27.90;40.30;;;;;;5001446;28;20206;-85
2023/07/14 10:49:05;;;;;;;2.72;1.67;;;27.90;40.20;;;;;;5001043;28;20295;-84
2023/07/14 10:51:34;;;;;;;5.63;1.92;;;;;;;;;;5000204;28;20216;-85
2023/07/14 10:54:04;;;;;;;2.13;1.60;;;27.80;41.00;;;;;;5000757;28;20235;-85
2023/07/14 10:56:34;;;;;;;3.17;1.88;;;27.80;39.20;;;;;;5008150;28;20207;-85
2023/07/14 10:59:05;;;;;;;2.50;1.77;;;27.70;39.90;;;;;;4999255;28;20184;-85
2023/07/14 11:01:36;;;;;;;3.78;2.05;;;27.80;39.60;;;;;;5000051;28;20748;-85
2023/07/14 11:04:13;;;;;;;3.50;1.73;;;27.80;39.60;;;;;;4999388;28;20567;-85
2023/07/14 11:06:39;;;;;;;5.15;2.08;;;27.80;39.30;;;;;;4999570;28;20203;-84
2023/07/14 11:09:09;;;;;;;2.58;1.92;;;27.80;39.50;;;;;;5000775;28;20200;-83
2023/07/14 11:11:40;;;;;;;4.75;2.00;;;27.80;38.60;;;;;;5000719;28;20219;-84
2023/07/14 11:14:17;;;;;;;3.13;2.05;;;27.80;39.00;;;;;;5000882;28;20195;-84
2023/07/14 11:16:52;;;;;;;4.53;2.20;;;27.70;38.20;;;;;;4999381;28;20642;-83
2023/07/14 11:19:23;;;;;;;5.97;2.10;;;27.80;39.10;;;;;;4997816;28;20657;-83
2023/07/14 11:21:53;;;;;;;3.80;2.10;;;27.80;38.80;;;;;;5016952;28;20266;-83
2023/07/14 11:24:21;;;;;;;2.47;1.80;;;27.80;38.30;;;;;;4999123;28;20639;-84
2023/07/14 11:27:05;;;;;;;3.83;1.80;;;27.80;37.20;;;;;;5002435;28;20332;-84
2023/07/14 11:29:38;;;;;;;2.67;1.80;;;27.80;37.70;;;;;;5004575;28;20207;-83
2023/07/14 11:32:09;;;;;;;3.33;2.10;;;27.80;38.10;;;;;;5003391;28;20218;-83
2023/07/14 11:34:38;;;;;;;3.33;2.13;;;27.80;38.30;;;;;;5006762;28;20199;-83
2023/07/14 11:37:19;;;;;;;5.80;2.10;;;27.80;38.30;;;;;;4989346;28;20246;-84
2023/07/14 11:39:47;;;;;;;2.17;1.98;;;27.80;38.60;;;;;;4986273;28;20220;-83
2023/07/14 11:42:19;;;;;;;3.25;2.13;;;27.90;38.70;;;;;;5000792;28;20220;-83
2023/07/14 11:44:49;;;;;;;2.42;1.90;;;27.90;38.90;;;;;;4984567;28;20210;-83
2023/07/14 11:47:20;;;;;;;4.03;1.73;;;27.90;38.80;;;;;;5000688;28;20200;-83
2023/07/14 11:49:48;;;;;;;3.40;1.90;;;27.90;38.70;;;;;;5004301;28;20220;-82
2023/07/14 11:52:21;;;;;;;2.58;1.92;;;28.00;38.70;;;;;;5005486;28;20686;-84
2023/07/14 11:54:56;;;;;;;3.47;1.92;;;27.90;38.70;;;;;;5140803;23;20249;-76
2023/07/14 11:57:23;;;;;;;3.63;1.73;;;28.00;38.80;;;;;;4992064;28;20192;-75
2023/07/14 11:59:58;;;;;;;3.20;1.80;;;28.00;38.70;;;;;;5012257;28;20251;-76
2023/07/14 12:02:31;;;;;;;2.63;1.58;;;28.00;39.40;;;;;;4999503;28;20198;-76
2023/07/14 12:04:59;;;;;;;4.03;1.83;;;28.00;38.90;;;;;;4999331;28;20207;-76
2023/07/14 12:07:27;;;;;;;4.28;2.10;;;28.00;38.90;;;;;;4998718;28;20200;-76
2023/07/14 12:10:10;;;;;;;3.05;1.80;;;28.00;39.40;;;;;;4998819;28;20563;-76
2023/07/14 12:12:38;;;;;;;2.17;1.65;;;28.00;39.40;;;;;;4998751;28;20212;-76
2023/07/14 12:15:39;;;;;;;3.80;2.13;;;28.00;39.70;;;;;;4998226;28;20203;-75
2023/07/14 12:18:30;;;;;;;4.50;1.85;;;28.00;40.20;;;;;;4995806;28;20212;-76
2023/07/14 12:21:29;;;;;;;2.85;1.83;;;28.00;39.80;;;;;;4995660;28;20221;-76
2023/07/14 12:24:00;;;;;;;3.08;1.90;;;28.00;40.00;;;;;;4995700;28;20193;-76
2023/07/14 12:26:32;;;;;;;2.72;1.85;;;28.10;40.00;;;;;;4996418;28;20195;-76
2023/07/14 12:29:01;;;;;;;2.08;1.70;;;28.00;40.60;;;;;;4998355;28;20670;-75
2023/07/14 12:31:34;;;;;;;2.00;1.58;;;28.10;40.40;;;;;;4995671;28;20223;-75
2023/07/14 12:34:03;;;;;;;2.45;1.70;;;28.10;40.30;;;;;;4995784;28;20197;-75
2023/07/14 12:36:31;;;;;;;3.35;1.77;;;28.10;40.20;;;;;;4995493;28;20204;-75
2023/07/14 12:38:58;;;;;;;3.65;1.70;;;28.10;40.30;;;;;;4995281;28;20203;-75
2023/07/14 12:41:27;;;;;;;2.20;1.77;;;28.10;39.90;;;;;;4995221;28;20243;-75
2023/07/14 12:43:55;;;;;;;4.82;1.90;;;28.10;40.00;;;;;;4995172;28;20629;-75
2023/07/14 12:46:23;;;;;;;2.00;1.55;;;28.10;40.00;;;;;;4995265;28;20212;-75
2023/07/14 12:48:51;;;;;;;2.85;1.85;;;28.10;40.20;;;;;;4995131;28;20231;-75
2023/07/14 12:51:21;;;;;;;4.05;2.22;;;28.10;40.30;;;;;;4994977;28;20221;-75
2023/07/14 12:53:57;;;;;;;1.90;1.70;;;28.10;40.20;;;;;;4994999;28;20642;-75
2023/07/14 12:56:24;;;;;;;1.80;1.60;;;28.10;40.30;;;;;;4995019;28;20287;-75
2023/07/14 12:58:54;;;;;;;2.97;1.70;;;28.10;41.20;;;;;;4996182;28;20189;-75